Observation data for Friona on 08/14/2020      Previous  Date  Next       Current Mesonet Observations  Soil Data  Daily Summary Page  Observations in Plain Language
KFAS 140500Z 18001KT 23/13 A3007 RMK A01 T02320126  RH  053%=      5-min Rain = 0
KFAS 140505Z 20006KT 22/13 A3007 RMK A01 T02230126  RH  056%=      5-min Rain = 0
KFAS 140510Z 23006KT 22/12 A3007 RMK A01 T02190121  RH  056%=      5-min Rain = 0
KFAS 140515Z 24005KT 22/13 A3007 RMK A01 T02220132  RH  059%=      5-min Rain = 0
KFAS 140520Z 23005KT 23/14 A3007 RMK A01 T02260136  RH  059%=      5-min Rain = 0
KFAS 140525Z 23003KT 22/13 A3007 RMK A01 T02220134  RH  060%=      5-min Rain = 0
KFAS 140530Z 24002KT 22/13 A3007 RMK A01 T02180129  RH  059%=      5-min Rain = 0
KFAS 140535Z 29002KT 22/13 A3007 RMK A01 T02210134  RH  060%=      5-min Rain = 0
KFAS 140540Z 28003KT 22/13 A3007 RMK A01 T02210133  RH  060%=      5-min Rain = 0
KFAS 140545Z 28004KT 22/13 A3007 RMK A01 T02150130  RH  060%=      5-min Rain = 0
KFAS 140550Z 29004KT 22/13 A3007 RMK A01 T02150130  RH  060%=      5-min Rain = 0
KFAS 140555Z 29004KT 22/13 A3007 RMK A01 T02160127  RH  059%=      5-min Rain = 0
KFAS 140600Z 31004KT 22/12 A3007 RMK A01 T02180124  RH  057%=      5-min Rain = 0
KFAS 140605Z 34004KT 21/12 A3007 RMK A01 T02130124  RH  059%=      5-min Rain = 0
KFAS 140610Z 34004KT 21/13 A3007 RMK A01 T02140125  RH  059%=      5-min Rain = 0
KFAS 140615Z 34004KT 22/12 A3007 RMK A01 T02160120  RH  056%=      5-min Rain = 0
KFAS 140620Z 34004KT 22/12 A3007 RMK A01 T02150120  RH  057%=      5-min Rain = 0
KFAS 140625Z 35004KT 22/12 A3007 RMK A01 T02160119  RH  056%=      5-min Rain = 0
KFAS 140630Z 01004KT 22/12 A3007 RMK A01 T02150119  RH  056%=      5-min Rain = 0
KFAS 140635Z 01004KT 22/12 A3007 RMK A01 T02150121  RH  057%=      5-min Rain = 0
KFAS 140640Z 01004KT 22/13 A3007 RMK A01 T02160132  RH  061%=      5-min Rain = 0
KFAS 140645Z 03005KT 22/13 A3007 RMK A01 T02160130  RH  060%=      5-min Rain = 0
KFAS 140650Z 04006KT 22/13 A3007 RMK A01 T02150129  RH  060%=      5-min Rain = 0
KFAS 140655Z 05007KT 22/13 A3006 RMK A01 T02200132  RH  060%=      5-min Rain = 0
KFAS 140700Z 05009KT 22/13 A3006 RMK A01 T02240133  RH  059%=      5-min Rain = 0
KFAS 140705Z 06008KT 22/14 A3006 RMK A01 T02190138  RH  063%=      5-min Rain = 0
KFAS 140710Z 06009KT 21/14 A3006 RMK A01 T02120142  RH  067%=      5-min Rain = 0
KFAS 140715Z 06008KT 21/14 A3006 RMK A01 T02080142  RH  069%=      5-min Rain = 0
KFAS 140720Z 06006KT 20/14 A3006 RMK A01 T02040142  RH  070%=      5-min Rain = 0
KFAS 140725Z 07005KT 20/14 A3006 RMK A01 T02040143  RH  071%=      5-min Rain = 0
KFAS 140730Z 06005KT 21/14 A3005 RMK A01 T02070143  RH  070%=      5-min Rain = 0
KFAS 140735Z 06006KT 21/14 A3005 RMK A01 T02100143  RH  068%=      5-min Rain = 0
KFAS 140740Z 06006KT 21/14 A3005 RMK A01 T02130142  RH  067%=      5-min Rain = 0
KFAS 140745Z 06005KT 22/14 A3005 RMK A01 T02150142  RH  066%=      5-min Rain = 0
KFAS 140750Z 07005KT 22/14 A3005 RMK A01 T02150143  RH  067%=      5-min Rain = 0
KFAS 140755Z 08005KT 21/15 A3005 RMK A01 T02080148  RH  071%=      5-min Rain = 0
KFAS 140800Z 12003KT 20/15 A3005 RMK A01 T02040147  RH  073%=      5-min Rain = 0
KFAS 140805Z 12004KT 20/14 A3005 RMK A01 T02020144  RH  072%=      5-min Rain = 0
KFAS 140810Z 11004KT 20/14 A3005 RMK A01 T01980140  RH  072%=      5-min Rain = 0
KFAS 140815Z 11004KT 20/14 A3005 RMK A01 T01950139  RH  073%=      5-min Rain = 0
KFAS 140820Z 12003KT 20/13 A3005 RMK A01 T01950134  RH  071%=      5-min Rain = 0
KFAS 140825Z 13003KT 19/13 A3005 RMK A01 T01930131  RH  070%=      5-min Rain = 0
KFAS 140830Z 11003KT 19/13 A3005 RMK A01 T01930128  RH  069%=      5-min Rain = 0
KFAS 140835Z 11003KT 19/13 A3005 RMK A01 T01940128  RH  068%=      5-min Rain = 0
KFAS 140840Z 14001KT 19/13 A3006 RMK A01 T01940127  RH  068%=      5-min Rain = 0
KFAS 140845Z 25004KT 19/13 A3006 RMK A01 T01880131  RH  072%=      5-min Rain = 0
KFAS 140850Z 26006KT 19/13 A3006 RMK A01 T01900133  RH  073%=      5-min Rain = 0
KFAS 140855Z 28003KT 19/13 A3006 RMK A01 T01930133  RH  071%=      5-min Rain = 0
KFAS 140900Z 30002KT 19/13 A3006 RMK A01 T01920133  RH  072%=      5-min Rain = 0
KFAS 140905Z 28003KT 19/13 A3006 RMK A01 T01920134  RH  072%=      5-min Rain = 0
KFAS 140910Z 27004KT 19/13 A3005 RMK A01 T01890132  RH  073%=      5-min Rain = 0
KFAS 140915Z 25005KT 19/14 A3006 RMK A01 T01850136  RH  076%=      5-min Rain = 0
KFAS 140920Z 23011KT 18/14 A3007 RMK A01 T01830136  RH  077%=      5-min Rain = 0
KFAS 140925Z 24005G14KT 20/14 A3006 RMK A01 T01990138  RH  071%=      5-min Rain = 0
KFAS 140930Z 23006KT 21/14 A3006 RMK A01 T02080140  RH  068%=      5-min Rain = 0
KFAS 140935Z 26007KT 21/14 A3006 RMK A01 T02060140  RH  069%=      5-min Rain = 0
KFAS 140940Z 26010KT 21/14 A3007 RMK A01 T02070139  RH  068%=      5-min Rain = 0
KFAS 140945Z 26006KT 21/14 A3006 RMK A01 T02080138  RH  067%=      5-min Rain = 0
KFAS 140950Z 27004KT 21/14 A3006 RMK A01 T02070136  RH  067%=      5-min Rain = 0
KFAS 140955Z 25008KT 20/14 A3007 RMK A01 T02010137  RH  069%=      5-min Rain = 0
KFAS 141000Z 27006KT 20/14 A3006 RMK A01 T02010136  RH  069%=      5-min Rain = 0
KFAS 141005Z 27006KT 20/13 A3006 RMK A01 T02040134  RH  067%=      5-min Rain = 0
KFAS 141010Z 26007KT 20/13 A3006 RMK A01 T02030134  RH  067%=      5-min Rain = 0
KFAS 141015Z 27005KT 20/13 A3006 RMK A01 T02000134  RH  069%=      5-min Rain = 0
KFAS 141020Z 27005KT 20/13 A3006 RMK A01 T01990133  RH  068%=      5-min Rain = 0
KFAS 141025Z 28006KT 20/13 A3006 RMK A01 T01990133  RH  068%=      5-min Rain = 0
KFAS 141030Z 29006KT 20/13 A3006 RMK A01 T01980132  RH  068%=      5-min Rain = 0
KFAS 141035Z 28004KT 19/13 A3006 RMK A01 T01910131  RH  071%=      5-min Rain = 0
KFAS 141040Z 27002KT 19/13 A3006 RMK A01 T01880131  RH  072%=      5-min Rain = 0
KFAS 141045Z 27001KT 19/13 A3006 RMK A01 T01890132  RH  072%=      5-min Rain = 0
KFAS 141050Z 29001KT 19/13 A3006 RMK A01 T01920133  RH  071%=      5-min Rain = 0
KFAS 141055Z 00000KT 19/14 A3006 RMK A01 T01920135  RH  072%=      5-min Rain = 0
KFAS 141100Z 00000KT 19/14 A3006 RMK A01 T01900141  RH  077%=      5-min Rain = 0
KFAS 141105Z 30000KT 19/14 A3006 RMK A01 T01860142  RH  079%=      5-min Rain = 0
KFAS 141110Z 31002KT 19/14 A3006 RMK A01 T01860137  RH  076%=      5-min Rain = 0
KFAS 141115Z 33003KT 19/13 A3006 RMK A01 T01900134  RH  073%=      5-min Rain = 0
KFAS 141120Z 33004KT 17/13 A3006 RMK A01 T01730128  RH  078%=      5-min Rain = 0
KFAS 141125Z 34005KT 17/13 A3005 RMK A01 T01670127  RH  080%=      5-min Rain = 0
KFAS 141130Z 33004KT 18/13 A3006 RMK A01 T01760129  RH  077%=      5-min Rain = 0
KFAS 141135Z 32002KT 18/13 A3006 RMK A01 T01830128  RH  074%=      5-min Rain = 0
KFAS 141140Z 29002KT 18/13 A3006 RMK A01 T01840130  RH  073%=      5-min Rain = 0
KFAS 141145Z 31003KT 18/13 A3006 RMK A01 T01810133  RH  076%=      5-min Rain = 0
KFAS 141150Z 32003KT 19/13 A3007 RMK A01 T01860134  RH  075%=      5-min Rain = 0
KFAS 141155Z 25002KT 18/13 A3007 RMK A01 T01820134  RH  077%=      5-min Rain = 0
KFAS 141200Z 23002KT 18/13 A3007 RMK A01 T01760134  RH  079%=      5-min Rain = 0
KFAS 141205Z 22003KT 17/13 A3007 RMK A01 T01740132  RH  079%=      5-min Rain = 0
KFAS 141210Z 21002KT 18/13 A3007 RMK A01 T01750132  RH  079%=      5-min Rain = 0
KFAS 141215Z 24001KT 18/14 A3008 RMK A01 T01810135  RH  078%=      5-min Rain = 0
KFAS 141220Z 02003KT 18/14 A3008 RMK A01 T01820135  RH  077%=      5-min Rain = 0
KFAS 141225Z 35002KT 18/13 A3008 RMK A01 T01790134  RH  078%=      5-min Rain = 0
KFAS 141230Z 35001KT 18/14 A3008 RMK A01 T01800135  RH  078%=      5-min Rain = 0
KFAS 141235Z 26000KT 18/14 A3008 RMK A01 T01830137  RH  077%=      5-min Rain = 0
KFAS 141240Z 22000KT 19/14 A3009 RMK A01 T01890141  RH  077%=      5-min Rain = 0
KFAS 141245Z 22000KT 19/14 A3009 RMK A01 T01940142  RH  075%=      5-min Rain = 0
KFAS 141250Z 22001KT 20/14 A3008 RMK A01 T02000141  RH  072%=      5-min Rain = 0
KFAS 141255Z 21002KT 21/14 A3008 RMK A01 T02070142  RH  069%=      5-min Rain = 0
KFAS 141300Z 16000KT 21/14 A3009 RMK A01 T02130144  RH  067%=      5-min Rain = 0
KFAS 141305Z 22001KT 22/14 A3009 RMK A01 T02180143  RH  065%=      5-min Rain = 0
KFAS 141310Z 26001KT 22/14 A3009 RMK A01 T02210143  RH  064%=      5-min Rain = 0
KFAS 141315Z 30002KT 23/15 A3009 RMK A01 T02250148  RH  064%=      5-min Rain = 0
KFAS 141320Z 28002KT 22/15 A3009 RMK A01 T02230149  RH  066%=      5-min Rain = 0
KFAS 141325Z 27002KT 22/15 A3009 RMK A01 T02220146  RH  065%=      5-min Rain = 0
KFAS 141330Z 26001KT 22/15 A3009 RMK A01 T02220148  RH  066%=      5-min Rain = 0
KFAS 141335Z 28001KT 22/15 A3009 RMK A01 T02230149  RH  066%=      5-min Rain = 0
KFAS 141340Z 28002KT 23/15 A3009 RMK A01 T02250147  RH  064%=      5-min Rain = 0
KFAS 141345Z 28002KT 23/15 A3009 RMK A01 T02260149  RH  064%=      5-min Rain = 0
KFAS 141350Z 25003KT 23/15 A301 RMK A01 T02280150  RH  064%=      5-min Rain = 0
KFAS 141355Z 24003KT 23/15 A3009 RMK A01 T02300150  RH  064%=      5-min Rain = 0
KFAS 141400Z 23004KT 24/15 A301 RMK A01 T02350150  RH  062%=      5-min Rain = 0
KFAS 141405Z 25004KT 24/15 A3009 RMK A01 T02440150  RH  058%=      5-min Rain = 0
KFAS 141410Z 25004KT 25/15 A3009 RMK A01 T02470152  RH  058%=      5-min Rain = 0
KFAS 141415Z 27004KT 25/15 A3009 RMK A01 T02460151  RH  058%=      5-min Rain = 0
KFAS 141420Z 29003KT 25/15 A3009 RMK A01 T02470152  RH  058%=      5-min Rain = 0
KFAS 141425Z 30003KT 25/15 A3009 RMK A01 T02510151  RH  056%=      5-min Rain = 0
KFAS 141430Z 30003KT 26/15 A3009 RMK A01 T02590150  RH  053%=      5-min Rain = 0
KFAS 141435Z 26003KT 27/15 A3009 RMK A01 T02700150  RH  050%=      5-min Rain = 0
KFAS 141440Z 26003KT 28/15 A3009 RMK A01 T02770146  RH  047%=      5-min Rain = 0
KFAS 141445Z 25002KT 28/15 A3009 RMK A01 T02820147  RH  046%=      5-min Rain = 0
KFAS 141450Z 24004KT 29/15 A3009 RMK A01 T02860145  RH  044%=      5-min Rain = 0
KFAS 141455Z 26004KT 29/14 A3009 RMK A01 T02920143  RH  042%=      5-min Rain = 0
KFAS 141500Z 25005KT 29/14 A3009 RMK A01 T02900142  RH  042%=      5-min Rain = 0
KFAS 141505Z 23006KT 29/14 A3009 RMK A01 T02890139  RH  041%=      5-min Rain = 0
KFAS 141510Z 24006KT 29/14 A3009 RMK A01 T02940140  RH  041%=      5-min Rain = 0
KFAS 141515Z 24006KT 30/14 A3009 RMK A01 T03030140  RH  039%=      5-min Rain = 0
KFAS 141520Z 23007KT 31/14 A3009 RMK A01 T03120137  RH  036%=      5-min Rain = 0
KFAS 141525Z 26007KT 32/13 A3009 RMK A01 T03190132  RH  033%=      5-min Rain = 0
KFAS 141530Z 25007KT 32/13 A3009 RMK A01 T03220131  RH  033%=      5-min Rain = 0
KFAS 141535Z 25006KT 33/13 A3009 RMK A01 T03250129  RH  032%=      5-min Rain = 0
KFAS 141540Z 23006KT 33/13 A3009 RMK A01 T03300126  RH  030%=      5-min Rain = 0
KFAS 141545Z 24005KT 33/13 A3009 RMK A01 T03340125  RH  029%=      5-min Rain = 0
KFAS 141550Z 24007KT 34/12 A3008 RMK A01 T03380121  RH  028%=      5-min Rain = 0
KFAS 141555Z 24008KT 34/12 A3008 RMK A01 T03410119  RH  027%=      5-min Rain = 0
KFAS 141600Z 25006KT 35/12 A3008 RMK A01 T03450120  RH  027%=      5-min Rain = 0
KFAS 141605Z 26007KT 35/11 A3008 RMK A01 T03500105  RH  023%=      5-min Rain = 0
KFAS 141610Z 26007KT 35/10 A3008 RMK A01 T03530097  RH  022%=      5-min Rain = 0
KFAS 141615Z 24007KT 36/09 A3008 RMK A01 T03570091  RH  020%=      5-min Rain = 0
KFAS 141620Z 24008KT 36/09 A3008 RMK A01 T03590085  RH  019%=      5-min Rain = 0
KFAS 141625Z 24008KT 36/08 A3008 RMK A01 T03600082  RH  019%=      5-min Rain = 0
KFAS 141630Z 25007KT 36/09 A3008 RMK A01 T03610087  RH  019%=      5-min Rain = 0
KFAS 141635Z 23007KT 36/09 A3008 RMK A01 T03620086  RH  019%=      5-min Rain = 0
KFAS 141640Z 22008KT 36/08 A3008 RMK A01 T03640082  RH  018%=      5-min Rain = 0
KFAS 141645Z 23007KT 37/08 A3008 RMK A01 T03650083  RH  018%=      5-min Rain = 0
KFAS 141650Z 27008KT 37/09 A3008 RMK A01 T03680086  RH  018%=      5-min Rain = 0
KFAS 141655Z 25007KT 37/08 A3008 RMK A01 T03700083  RH  018%=      5-min Rain = 0
KFAS 141700Z 27008KT 37/07 A3008 RMK A01 T03730073  RH  017%=      5-min Rain = 0
KFAS 141705Z 26009KT 37/08 A3008 RMK A01 T03730078  RH  017%=      5-min Rain = 0
KFAS 141710Z 25009G15KT 38/08 A3008 RMK A01 T03750075  RH  017%=      5-min Rain = 0
KFAS 141715Z 24009KT 38/07 A3008 RMK A01 T03750072  RH  016%=      5-min Rain = 0
KFAS 141720Z 24011G17KT 38/07 A3008 RMK A01 T03760066  RH  015%=      5-min Rain = 0
KFAS 141725Z 26010KT 38/07 A3008 RMK A01 T03760071  RH  016%=      5-min Rain = 0
KFAS 141730Z 26012KT 38/07 A3008 RMK A01 T03800072  RH  016%=      5-min Rain = 0
KFAS 141735Z 24011G17KT 38/06 A3008 RMK A01 T03770064  RH  015%=      5-min Rain = 0
KFAS 141740Z 23012G17KT 38/06 A3007 RMK A01 T03790064  RH  015%=      5-min Rain = 0
KFAS 141745Z 25010G17KT 38/07 A3007 RMK A01 T03790066  RH  015%=      5-min Rain = 0
KFAS 141750Z 20012KT 38/07 A3007 RMK A01 T03790071  RH  016%=      5-min Rain = 0
KFAS 141755Z 23011G19KT 38/07 A3007 RMK A01 T03800069  RH  015%=      5-min Rain = 0
KFAS 141800Z 20013G18KT 38/07 A3007 RMK A01 T03830071  RH  015%=      5-min Rain = 0
KFAS 141805Z 21011G17KT 38/07 A3007 RMK A01 T03840073  RH  016%=      5-min Rain = 0
KFAS 141810Z 20014G19KT 38/08 A3007 RMK A01 T03800081  RH  017%=      5-min Rain = 0
KFAS 141815Z 18013KT 38/09 A3006 RMK A01 T03800087  RH  017%=      5-min Rain = 0
KFAS 141820Z 21012G19KT 38/08 A3006 RMK A01 T03780083  RH  017%=      5-min Rain = 0
KFAS 141825Z 19016G22KT 38/08 A3006 RMK A01 T03780080  RH  017%=      5-min Rain = 0
KFAS 141830Z 19016G21KT 38/08 A3006 RMK A01 T03830079  RH  016%=      5-min Rain = 0
KFAS 141835Z 20015KT 38/08 A3006 RMK A01 T03830076  RH  016%=      5-min Rain = 0
KFAS 141840Z 22013G18KT 38/08 A3006 RMK A01 T03800075  RH  016%=      5-min Rain = 0
KFAS 141845Z 20013KT 38/08 A3006 RMK A01 T03820075  RH  016%=      5-min Rain = 0
KFAS 141850Z 22010G17KT 38/07 A3006 RMK A01 T03840072  RH  015%=      5-min Rain = 0
KFAS 141855Z 24011G17KT 38/07 A3006 RMK A01 T03820072  RH  015%=      5-min Rain = 0
KFAS 141900Z 22007G16KT 38/07 A3005 RMK A01 T03830070  RH  015%=      5-min Rain = 0
KFAS 141905Z 22012KT 39/07 A3005 RMK A01 T03860068  RH  015%=      5-min Rain = 0
KFAS 141910Z 20014G19KT 38/07 A3005 RMK A01 T03840067  RH  015%=      5-min Rain = 0
KFAS 141915Z 19011G21KT 39/07 A3005 RMK A01 T03860067  RH  015%=      5-min Rain = 0
KFAS 141920Z 19011G16KT 38/06 A3005 RMK A01 T03830064  RH  015%=      5-min Rain = 0
KFAS 141925Z 21012G17KT 38/06 A3004 RMK A01 T03840063  RH  014%=      5-min Rain = 0
KFAS 141930Z 25011KT 39/06 A3004 RMK A01 T03860064  RH  014%=      5-min Rain = 0
KFAS 141935Z 29004G10KT 38/06 A3004 RMK A01 T03840063  RH  014%=      5-min Rain = 0
KFAS 141940Z 24011G18KT 39/06 A3004 RMK A01 T03880063  RH  014%=      5-min Rain = 0
KFAS 141945Z 23007G15KT 39/06 A3004 RMK A01 T03870061  RH  014%=      5-min Rain = 0
KFAS 141950Z 20007KT 39/06 A3003 RMK A01 T03880063  RH  014%=      5-min Rain = 0
KFAS 141955Z 26009KT 39/07 A3003 RMK A01 T03920066  RH  014%=      5-min Rain = 0
KFAS 142000Z 25009G14KT 39/06 A3003 RMK A01 T03930063  RH  014%=      5-min Rain = 0
KFAS 142005Z 29005KT 39/06 A3003 RMK A01 T03880061  RH  014%=      5-min Rain = 0
KFAS 142010Z 26004KT 39/06 A3002 RMK A01 T03900062  RH  014%=      5-min Rain = 0
KFAS 142015Z 21004G9KT 39/06 A3002 RMK A01 T03920061  RH  014%=      5-min Rain = 0
KFAS 142020Z 20004G9KT 39/06 A3002 RMK A01 T03920059  RH  013%=      5-min Rain = 0
KFAS 142025Z 24008KT 39/06 A3001 RMK A01 T03930063  RH  014%=      5-min Rain = 0
KFAS 142030Z 25009KT 40/07 A3001 RMK A01 T03980067  RH  014%=      5-min Rain = 0
KFAS 142035Z 25009KT 39/06 A30 RMK A01 T03930062  RH  014%=      5-min Rain = 0
KFAS 142040Z 27006KT 39/06 A30 RMK A01 T03940063  RH  014%=      5-min Rain = 0
KFAS 142045Z 30007KT 40/06 A30 RMK A01 T03950061  RH  013%=      5-min Rain = 0
KFAS 142050Z 26005G11KT 39/06 A30 RMK A01 T03940063  RH  014%=      5-min Rain = 0
KFAS 142055Z 23006G11KT 40/06 A2999 RMK A01 T03980064  RH  013%=      5-min Rain = 0
KFAS 142100Z 26008G15KT 40/06 A2999 RMK A01 T03970062  RH  013%=      5-min Rain = 0
KFAS 142105Z 21004KT 40/06 A2999 RMK A01 T03950062  RH  014%=      5-min Rain = 0
KFAS 142110Z 24005KT 40/07 A2999 RMK A01 T04010065  RH  013%=      5-min Rain = 0
KFAS 142115Z 29006G14KT 41/07 A2998 RMK A01 T04060065  RH  013%=      5-min Rain = 0
KFAS 142120Z 22004KT 40/06 A2998 RMK A01 T04040061  RH  013%=      5-min Rain = 0
KFAS 142125Z 18010G15KT 41/07 A2998 RMK A01 T04050065  RH  013%=      5-min Rain = 0
KFAS 142130Z 20007G13KT 40/06 A2998 RMK A01 T04000063  RH  013%=      5-min Rain = 0
KFAS 142135Z 24007G13KT 40/06 A2998 RMK A01 T04040064  RH  013%=      5-min Rain = 0
KFAS 142140Z 20009G17KT 40/06 A2997 RMK A01 T04000063  RH  013%=      5-min Rain = 0
KFAS 142145Z 20009KT 39/06 A2997 RMK A01 T03850059  RH  014%=      5-min Rain = 0
KFAS 142150Z 19005G10KT 38/06 A2997 RMK A01 T03790060  RH  014%=      5-min Rain = 0
KFAS 142155Z 20006KT 38/06 A2997 RMK A01 T03780057  RH  014%=      5-min Rain = 0
KFAS 142200Z 21004G10KT 38/06 A2997 RMK A01 T03750059  RH  015%=      5-min Rain = 0
KFAS 142205Z 23007KT 37/06 A2997 RMK A01 T03730056  RH  015%=      5-min Rain = 0
KFAS 142210Z 21009KT 37/05 A2997 RMK A01 T03720054  RH  014%=      5-min Rain = 0
KFAS 142215Z 23009KT 37/06 A2997 RMK A01 T03690057  RH  015%=      5-min Rain = 0
KFAS 142220Z 29006KT 36/09 A2998 RMK A01 T03600091  RH  020%=      5-min Rain = 0
KFAS 142225Z 00008KT 34/10 A2998 RMK A01 T03380101  RH  024%=      5-min Rain = 0
KFAS 142230Z 31011G22KT 32/12 A2999 RMK A01 T03230116  RH  029%=      5-min Rain = 0
KFAS 142235Z 32027G41KT 29/14 A30 RMK A01 T02860139  RH  043%=      5-min Rain = 0.04
KFAS 142240Z 28011G32KT 26/12 A3004 RMK A01 T02580120  RH  044%=      5-min Rain = 0.11
KFAS 142245Z 29014G32KT 27/11 A3003 RMK A01 T02710106  RH  037%=      5-min Rain = 0.03
KFAS 142250Z 29028G39KT 28/10 A3003 RMK A01 T02750102  RH  035%=      5-min Rain = 0.03
KFAS 142255Z 28021G31KT 28/09 A3003 RMK A01 T02810088  RH  031%=      5-min Rain = 0.04
KFAS 142300Z 22013G19KT 29/09 A3001 RMK A01 T02890093  RH  030%=      5-min Rain = 0.03
KFAS 142305Z 20011G17KT 28/09 A30 RMK A01 T02840086  RH  031%=      5-min Rain = 0
KFAS 142310Z 17010G15KT 30/11 A2999 RMK A01 T03030110  RH  032%=      5-min Rain = 0
KFAS 142315Z 20015G20KT 29/14 A2999 RMK A01 T02870144  RH  044%=      5-min Rain = 0
KFAS 142320Z 22014KT 29/15 A30 RMK A01 T02850153  RH  047%=      5-min Rain = 0
KFAS 142325Z 20013G19KT 30/13 A30 RMK A01 T03010128  RH  036%=      5-min Rain = 0
KFAS 142330Z 19017KT 30/12 A30 RMK A01 T02980122  RH  035%=      5-min Rain = 0
KFAS 142335Z 18015G20KT 30/12 A2999 RMK A01 T03000124  RH  035%=      5-min Rain = 0
KFAS 142340Z 19013KT 31/14 A30 RMK A01 T03050136  RH  037%=      5-min Rain = 0
KFAS 142345Z 19013KT 31/14 A30 RMK A01 T03070136  RH  037%=      5-min Rain = 0
KFAS 142350Z 19013KT 31/14 A30 RMK A01 T03070135  RH  037%=      5-min Rain = 0
KFAS 142355Z 19012G17KT 31/13 A30 RMK A01 T03100130  RH  035%=      5-min Rain = 0
KFAS 150000Z 20018KT 31/12 A3001 RMK A01 T03100123  RH  033%=      5-min Rain = 0
KFAS 150005Z 19020G25KT 31/12 A3001 RMK A01 T03050116  RH  032%=      5-min Rain = 0
KFAS 150010Z 18021G27KT 30/12 A3001 RMK A01 T02990123  RH  035%=      5-min Rain = 0
KFAS 150015Z 18018KT 29/13 A3002 RMK A01 T02880129  RH  039%=      5-min Rain = 0
KFAS 150020Z 15015KT 29/13 A3003 RMK A01 T02850133  RH  041%=      5-min Rain = 0
KFAS 150025Z 12014G19KT 28/13 A3004 RMK A01 T02780127  RH  041%=      5-min Rain = 0
KFAS 150030Z 13017G22KT 28/12 A3004 RMK A01 T02760115  RH  038%=      5-min Rain = 0
KFAS 150035Z 14016G23KT 28/12 A3004 RMK A01 T02760116  RH  038%=      5-min Rain = 0
KFAS 150040Z 16017G24KT 27/12 A3004 RMK A01 T02740119  RH  040%=      5-min Rain = 0
KFAS 150045Z 16018KT 27/12 A3004 RMK A01 T02700121  RH  041%=      5-min Rain = 0
KFAS 150050Z 14016KT 26/13 A3005 RMK A01 T02630125  RH  044%=      5-min Rain = 0
KFAS 150055Z 13014G19KT 26/13 A3006 RMK A01 T02580125  RH  045%=      5-min Rain = 0
KFAS 150100Z 14013G18KT 26/13 A3006 RMK A01 T02560126  RH  046%=      5-min Rain = 0
KFAS 150105Z 15012G17KT 26/13 A3007 RMK A01 T02560128  RH  047%=      5-min Rain = 0
KFAS 150110Z 14013KT 26/12 A3007 RMK A01 T02570124  RH  045%=      5-min Rain = 0
KFAS 150115Z 13014G19KT 26/12 A3008 RMK A01 T02570121  RH  044%=      5-min Rain = 0
KFAS 150120Z 13012G17KT 26/12 A3009 RMK A01 T02570119  RH  044%=      5-min Rain = 0
KFAS 150125Z 12011KT 26/12 A301 RMK A01 T02560119  RH  044%=      5-min Rain = 0
KFAS 150130Z 11010G15KT 26/12 A301 RMK A01 T02560119  RH  044%=      5-min Rain = 0
KFAS 150135Z 09008G14KT 25/13 A3011 RMK A01 T02540126  RH  047%=      5-min Rain = 0
KFAS 150140Z 09010KT 25/13 A3011 RMK A01 T02480128  RH  049%=      5-min Rain = 0
KFAS 150145Z 10012G17KT 25/13 A301 RMK A01 T02480126  RH  048%=      5-min Rain = 0
KFAS 150150Z 11011KT 25/13 A301 RMK A01 T02490125  RH  048%=      5-min Rain = 0
KFAS 150155Z 12011KT 25/13 A301 RMK A01 T02480125  RH  048%=      5-min Rain = 0
KFAS 150200Z 13013KT 25/12 A3009 RMK A01 T02470124  RH  048%=      5-min Rain = 0
KFAS 150205Z 15016G22KT 25/12 A3008 RMK A01 T02480124  RH  048%=      5-min Rain = 0
KFAS 150210Z 15018G24KT 25/13 A3007 RMK A01 T02490126  RH  048%=      5-min Rain = 0
KFAS 150215Z 16016KT 25/13 A3007 RMK A01 T02480127  RH  049%=      5-min Rain = 0
KFAS 150220Z 16015G21KT 25/13 A3007 RMK A01 T02470128  RH  049%=      5-min Rain = 0
KFAS 150225Z 16013KT 25/13 A3007 RMK A01 T02460128  RH  049%=      5-min Rain = 0
KFAS 150230Z 16012KT 25/13 A3007 RMK A01 T02490127  RH  048%=      5-min Rain = 0
KFAS 150235Z 16014KT 25/13 A3007 RMK A01 T02490127  RH  048%=      5-min Rain = 0
KFAS 150240Z 17014KT 25/13 A3007 RMK A01 T02500127  RH  048%=      5-min Rain = 0
KFAS 150245Z 17014KT 25/13 A3007 RMK A01 T02490129  RH  049%=      5-min Rain = 0
KFAS 150250Z 17015KT 25/13 A3007 RMK A01 T02450132  RH  051%=      5-min Rain = 0
KFAS 150255Z 17015G20KT 24/13 A3007 RMK A01 T02440133  RH  052%=      5-min Rain = 0
KFAS 150300Z 17015KT 24/14 A3006 RMK A01 T02420135  RH  053%=      5-min Rain = 0
KFAS 150305Z 17015KT 24/14 A3006 RMK A01 T02400136  RH  054%=      5-min Rain = 0
KFAS 150310Z 17014KT 24/14 A3006 RMK A01 T02390137  RH  055%=      5-min Rain = 0
KFAS 150315Z 17012KT 24/14 A3007 RMK A01 T02370138  RH  056%=      5-min Rain = 0
KFAS 150320Z 16011KT 24/14 A3007 RMK A01 T02360139  RH  057%=      5-min Rain = 0
KFAS 150325Z 14009KT 24/14 A3007 RMK A01 T02350137  RH  057%=      5-min Rain = 0
KFAS 150330Z 13008KT 24/14 A3008 RMK A01 T02360136  RH  056%=      5-min Rain = 0
KFAS 150335Z 10007KT 24/14 A3008 RMK A01 T02350137  RH  056%=      5-min Rain = 0
KFAS 150340Z 09007KT 23/14 A3009 RMK A01 T02320137  RH  057%=      5-min Rain = 0
KFAS 150345Z 09008KT 23/14 A3009 RMK A01 T02320136  RH  057%=      5-min Rain = 0
KFAS 150350Z 10007KT 23/14 A3009 RMK A01 T02300135  RH  057%=      5-min Rain = 0
KFAS 150355Z 11006KT 23/14 A3009 RMK A01 T02290135  RH  058%=      5-min Rain = 0
KFAS 150400Z 10005KT 23/14 A3009 RMK A01 T02260138  RH  060%=      5-min Rain = 0
KFAS 150405Z 10004KT 22/14 A3009 RMK A01 T02220139  RH  062%=      5-min Rain = 0
KFAS 150410Z 11004KT 22/14 A3009 RMK A01 T02200140  RH  063%=      5-min Rain = 0
KFAS 150415Z 13004KT 22/14 A3009 RMK A01 T02180142  RH  064%=      5-min Rain = 0
KFAS 150420Z 14005KT 22/14 A3009 RMK A01 T02160142  RH  066%=      5-min Rain = 0
KFAS 150425Z 14008KT 22/14 A3008 RMK A01 T02170136  RH  063%=      5-min Rain = 0
KFAS 150430Z 13008KT 23/14 A3009 RMK A01 T02250135  RH  059%=      5-min Rain = 0
KFAS 150435Z 12007KT 22/14 A3009 RMK A01 T02240136  RH  060%=      5-min Rain = 0
KFAS 150440Z 11006KT 22/14 A3009 RMK A01 T02210138  RH  062%=      5-min Rain = 0
KFAS 150445Z 10005KT 22/14 A3009 RMK A01 T02170139  RH  064%=      5-min Rain = 0
KFAS 150450Z 10007KT 22/14 A3009 RMK A01 T02150140  RH  065%=      5-min Rain = 0
KFAS 150455Z 10007KT 21/14 A3009 RMK A01 T02130142  RH  067%=      5-min Rain = 0

Page generated in 0.0155 seconds.